Bowman Rgnl Information

FAA: BWW - ICAO: KBWW

Bowman Rgnl (Airport) Location

State North Dakota
County Bowman
City Bowman
Bowman Rgnl (Airport) is 4 miles east of Bowman, ND.
Latitude 46-09-55.8695N
Longitude 103-18-02.6739W
Elevation 2,965ft

Bowman Rgnl METARs

METAR KBWW 280135Z AUTO 29018G26KT 10SM SCT070 SCT085 08/01 A2986 RMK AO2
Altimeter 29.86"
Temperature 8.0°C (46.4°F)
Wind 290° at 18KT with gusts to 26KT
Clouds scattered at 7,000ft scattered at 8,500ft
Visibility 10.0mi
Time observed: 2021-10-28T01:35:00Z

Bowman Rgnl (Airport) Details

Status Operational
Activation May 2015
Ownership Public
Usage Public
Chart BILLINGS
ATC on-site No
Beacon schedule sunset-sunrise
Beacon color clear green

Bowman Rgnl (Airport) Contacts

Owner BOWMAN COUNTY ARPT AUTH
Owner address PO BOX 331, BOWMAN, ND 58623
Owner phone 701-523-7484
Manager CLINTON PUEPPKE
Manager address 2526 147TH AVE SE, AYR, ND 58007
Manager phone 701-261-2495

Bowman Rgnl Radio Frequencies

Bowman Rgnl (Airport) Radio Frequencies

UNICOM 122.8
Common traffic advisory frequency (CTAF) 122.8